createdAt,value
2022-11-20T00:12:15.273Z,5.50
2022-11-20T00:32:15.006Z,8.30
2022-11-20T00:52:14.739Z,7.40
2022-11-20T01:12:14.483Z,8.30
2022-11-20T01:32:14.285Z,9.50
2022-11-20T01:52:13.952Z,9.10
2022-11-20T02:12:13.691Z,11.60
2022-11-20T02:32:13.447Z,6.60
2022-11-20T02:52:13.170Z,10.30
2022-11-20T03:12:12.880Z,6.50
2022-11-20T03:32:12.669Z,8.30
2022-11-20T03:52:12.347Z,6.50
2022-11-20T04:12:12.077Z,10.10
2022-11-20T04:32:11.814Z,9.40
2022-11-20T04:52:11.561Z,12.50
2022-11-20T05:12:11.280Z,13.00
2022-11-20T05:32:11.028Z,10.80
2022-11-20T05:52:10.789Z,13.70
2022-11-20T06:12:10.513Z,10.50
2022-11-20T06:32:10.214Z,15.00
2022-11-20T06:52:09.960Z,15.20
2022-11-20T07:12:09.722Z,19.20
2022-11-20T07:32:09.404Z,19.10
2022-11-20T07:52:09.155Z,17.00
2022-11-20T08:12:08.887Z,14.10
2022-11-20T08:32:08.622Z,17.90
2022-11-20T08:52:08.364Z,10.00
2022-11-20T09:12:09.047Z,11.40
2022-11-20T09:32:07.823Z,10.10
2022-11-20T09:52:07.566Z,7.40
2022-11-20T10:12:07.318Z,9.30
2022-11-20T10:32:07.059Z,9.20
2022-11-20T10:52:06.811Z,5.00
2022-11-20T11:12:07.317Z,4.10
2022-11-20T11:32:06.236Z,2.90
2022-11-20T11:52:06.019Z,3.00
2022-11-20T12:12:05.713Z,2.00
2022-11-20T12:32:05.447Z,2.10
2022-11-20T12:52:06.193Z,1.60
2022-11-20T13:12:04.926Z,1.30
2022-11-20T13:32:07.739Z,1.80
2022-11-20T13:52:04.404Z,6.60
2022-11-20T14:12:04.140Z,5.90
2022-11-20T14:32:03.878Z,6.80
2022-11-20T14:52:03.653Z,7.80
2022-11-20T15:12:03.359Z,7.30
2022-11-20T15:32:03.072Z,13.10
2022-11-20T15:52:02.796Z,13.80
2022-11-20T16:12:02.527Z,13.20
2022-11-20T16:32:02.293Z,14.20
2022-11-20T16:52:02.008Z,20.70
2022-11-20T17:12:01.747Z,15.50
2022-11-20T17:32:01.471Z,17.70
2022-11-20T17:52:01.215Z,20.70
2022-11-20T18:12:00.948Z,13.90
2022-11-20T18:32:00.680Z,13.70
2022-11-20T18:52:00.412Z,22.70
2022-11-20T19:12:00.145Z,41.10
2022-11-20T19:31:59.869Z,21.80
2022-11-20T19:51:59.590Z,18.00
2022-11-20T20:11:59.326Z,23.30
2022-11-20T20:31:59.047Z,22.40
2022-11-20T20:51:58.922Z,23.50
2022-11-20T21:11:58.512Z,19.40
2022-11-20T21:31:58.255Z,25.30
2022-11-20T21:51:58.008Z,29.00
2022-11-20T22:11:57.748Z,28.10
2022-11-20T22:31:57.495Z,23.00
2022-11-20T22:51:57.265Z,30.10
2022-11-20T23:11:56.999Z,29.10
2022-11-20T23:31:56.747Z,29.40
2022-11-20T23:51:56.475Z,22.10
